createdAt,value
2022-08-03T00:00:33.251Z,6.50
2022-08-03T00:03:04.769Z,8.80
2022-08-03T00:05:35.809Z,4.30
2022-08-03T00:08:03.930Z,4.40
2022-08-03T00:10:32.772Z,4.30
2022-08-03T00:13:00.754Z,4.60
2022-08-03T00:15:28.634Z,5.30
2022-08-03T00:17:56.758Z,6.10
2022-08-03T00:20:25.197Z,4.40
2022-08-03T00:22:53.896Z,4.10
2022-08-03T00:25:22.258Z,5.00
2022-08-03T00:27:50.390Z,4.40
2022-08-03T00:30:18.889Z,4.50
2022-08-03T00:32:47.831Z,5.00
2022-08-03T00:35:34.402Z,5.70
2022-08-03T00:38:05.578Z,5.80
2022-08-03T00:40:33.815Z,6.40
2022-08-03T00:43:04.594Z,6.20
2022-08-03T00:45:38.330Z,4.60
2022-08-03T00:48:29.825Z,4.50
2022-08-03T00:50:56.253Z,4.70
2022-08-03T00:53:25.751Z,5.80
2022-08-03T00:55:53.751Z,6.60
2022-08-03T00:58:21.738Z,5.00
2022-08-03T01:00:49.944Z,4.40
2022-08-03T01:03:18.034Z,3.90
2022-08-03T01:05:52.114Z,5.90
2022-08-03T01:08:38.364Z,4.60
2022-08-03T01:11:19.757Z,3.90
2022-08-03T01:14:04.760Z,5.10
2022-08-03T01:16:41.507Z,4.30
2022-08-03T01:19:24.744Z,4.50
2022-08-03T01:22:56.800Z,4.20
2022-08-03T01:25:33.179Z,5.40
2022-08-03T01:28:45.507Z,6.80
2022-08-03T01:31:16.510Z,4.50
2022-08-03T01:33:47.302Z,5.30
2022-08-03T01:36:18.646Z,4.60
2022-08-03T01:38:50.808Z,5.70
2022-08-03T01:41:21.814Z,5.80
2022-08-03T01:44:27.548Z,5.50
2022-08-03T01:46:47.707Z,9.40
2022-08-03T01:49:17.579Z,5.50
2022-08-03T01:51:57.865Z,6.10
2022-08-03T01:54:38.236Z,4.90
2022-08-03T01:57:07.333Z,4.70
2022-08-03T01:59:36.812Z,5.60
2022-08-03T02:02:16.064Z,5.90
2022-08-03T02:04:56.836Z,5.50
2022-08-03T02:07:26.206Z,5.80
2022-08-03T02:09:54.744Z,5.00
2022-08-03T02:12:25.900Z,6.00
2022-08-03T02:14:54.271Z,6.00
2022-08-03T02:17:38.461Z,5.30
2022-08-03T02:20:09.579Z,6.10
2022-08-03T02:22:40.465Z,5.40
2022-08-03T02:25:09.963Z,5.50
2022-08-03T02:27:44.030Z,5.40
2022-08-03T02:30:14.322Z,7.10
2022-08-03T02:32:44.713Z,5.10
2022-08-03T02:35:15.968Z,6.00
2022-08-03T02:37:49.555Z,6.00
2022-08-03T02:40:19.627Z,6.50
2022-08-03T02:42:50.345Z,6.50
2022-08-03T02:45:18.487Z,5.30
2022-08-03T02:47:54.528Z,6.30
2022-08-03T02:50:23.761Z,7.30
2022-08-03T02:52:53.559Z,5.70
2022-08-03T02:55:25.228Z,6.10
2022-08-03T02:57:54.608Z,7.30
2022-08-03T03:00:28.035Z,9.70
2022-08-03T03:02:58.882Z,6.00
2022-08-03T03:05:55.339Z,6.10
2022-08-03T03:08:26.262Z,6.90
2022-08-03T03:10:58.684Z,7.40
2022-08-03T03:13:28.643Z,6.00
2022-08-03T03:16:00.570Z,6.30
2022-08-03T03:20:58.319Z,6.30
2022-08-03T03:23:26.634Z,6.20
2022-08-03T03:25:56.192Z,6.70
2022-08-03T03:28:25.035Z,6.60
2022-08-03T03:30:53.532Z,5.60
2022-08-03T03:33:22.611Z,5.90
2022-08-03T03:35:51.839Z,6.30
2022-08-03T03:38:20.730Z,7.00
2022-08-03T03:40:48.792Z,7.80
2022-08-03T03:43:18.580Z,6.90
2022-08-03T03:45:47.695Z,6.20
2022-08-03T03:48:16.182Z,8.10
2022-08-03T03:50:46.732Z,6.10
2022-08-03T03:53:14.996Z,7.50
2022-08-03T03:56:01.627Z,8.00
2022-08-03T03:58:32.298Z,6.20
2022-08-03T04:01:01.043Z,6.40
2022-08-03T04:03:29.384Z,6.60
2022-08-03T04:06:16.738Z,6.60
2022-08-03T04:09:03.912Z,9.50
2022-08-03T04:11:39.960Z,6.40
2022-08-03T04:14:25.152Z,9.50
2022-08-03T04:17:04.325Z,7.10
2022-08-03T04:19:48.228Z,6.50
2022-08-03T04:22:21.763Z,9.80
2022-08-03T04:25:10.015Z,7.10
2022-08-03T04:27:40.877Z,9.40
2022-08-03T04:30:09.388Z,7.40
2022-08-03T04:32:37.770Z,8.50
2022-08-03T04:35:07.010Z,8.00
2022-08-03T04:37:44.188Z,6.80
2022-08-03T04:40:30.753Z,12.70
2022-08-03T04:42:59.296Z,7.00
2022-08-03T04:45:28.766Z,8.60
2022-08-03T04:47:57.517Z,9.20
2022-08-03T04:50:25.784Z,8.30
2022-08-03T04:53:06.795Z,7.70
2022-08-03T04:55:36.103Z,8.70
2022-08-03T04:58:04.594Z,7.60
2022-08-03T05:00:32.656Z,8.30
2022-08-03T05:03:00.719Z,8.80
2022-08-03T05:05:36.258Z,8.00
2022-08-03T05:08:20.465Z,8.60
2022-08-03T05:10:59.051Z,8.50
2022-08-03T05:13:27.715Z,10.00
2022-08-03T05:15:55.903Z,8.60
2022-08-03T05:18:23.980Z,9.60
2022-08-03T05:20:52.248Z,7.60
2022-08-03T05:23:20.379Z,9.30
2022-08-03T05:25:49.975Z,8.90
2022-08-03T05:28:18.254Z,7.40
2022-08-03T05:30:46.343Z,8.10
2022-08-03T05:33:15.157Z,8.50
2022-08-03T05:35:57.882Z,10.70
2022-08-03T05:38:34.199Z,8.60
2022-08-03T05:41:22.507Z,9.30
2022-08-03T05:43:52.734Z,7.00
2022-08-03T05:46:21.468Z,7.00
2022-08-03T05:48:49.637Z,7.20
2022-08-03T05:51:17.967Z,8.70
2022-08-03T05:53:46.275Z,9.00
2022-08-03T05:56:16.368Z,7.20
2022-08-03T05:58:46.967Z,7.00
2022-08-03T06:01:17.166Z,7.50
2022-08-03T06:03:46.212Z,10.20
2022-08-03T06:06:14.918Z,7.60
2022-08-03T06:08:44.874Z,7.10
2022-08-03T06:11:13.231Z,6.40
2022-08-03T06:13:41.679Z,7.30
2022-08-03T06:16:09.938Z,9.90
2022-08-03T06:18:40.563Z,7.20
2022-08-03T06:21:14.283Z,8.30
2022-08-03T06:23:52.501Z,7.30
2022-08-03T06:26:23.182Z,6.90
2022-08-03T06:28:53.530Z,7.00
2022-08-03T06:31:25.972Z,8.30
2022-08-03T06:34:32.473Z,8.80
2022-08-03T06:36:52.145Z,8.30
2022-08-03T06:39:23.711Z,8.80
2022-08-03T06:41:52.853Z,6.40
2022-08-03T06:44:20.969Z,7.20
2022-08-03T06:46:48.935Z,8.30
2022-08-03T06:49:16.987Z,6.00
2022-08-03T06:52:05.203Z,7.30
2022-08-03T06:54:33.476Z,5.70
2022-08-03T06:57:01.566Z,7.30
2022-08-03T07:00:07.774Z,7.70
2022-08-03T07:02:19.883Z,7.00
2022-08-03T07:04:49.044Z,7.50
2022-08-03T07:07:17.565Z,8.20
2022-08-03T07:09:56.719Z,6.70
2022-08-03T07:12:30.007Z,6.70
2022-08-03T07:15:02.325Z,5.70
2022-08-03T07:17:33.120Z,9.10
2022-08-03T07:20:03.183Z,7.00
2022-08-03T07:22:31.126Z,5.60
2022-08-03T07:24:59.275Z,5.50
2022-08-03T07:27:28.557Z,5.80
2022-08-03T07:29:57.853Z,6.10
2022-08-03T07:32:28.478Z,5.90
2022-08-03T07:35:00.561Z,6.10
2022-08-03T07:37:30.280Z,4.80
2022-08-03T07:39:58.686Z,6.30
2022-08-03T07:42:30.231Z,4.50
2022-08-03T07:44:59.367Z,5.00
2022-08-03T07:47:34.796Z,4.80
2022-08-03T07:50:06.227Z,4.30
2022-08-03T07:52:49.383Z,4.10
2022-08-03T07:55:19.282Z,5.90
2022-08-03T07:57:47.846Z,3.90
2022-08-03T08:00:18.426Z,5.90
2022-08-03T08:02:46.475Z,6.30
2022-08-03T08:05:14.415Z,5.10
2022-08-03T08:07:42.395Z,4.60
2022-08-03T08:10:10.889Z,6.00
2022-08-03T08:12:40.303Z,4.20
2022-08-03T08:15:09.162Z,4.20
2022-08-03T08:17:54.441Z,5.10
2022-08-03T08:20:32.132Z,5.00
2022-08-03T08:23:02.695Z,7.90
2022-08-03T08:25:31.980Z,3.20
2022-08-03T08:28:30.278Z,4.70
2022-08-03T08:30:52.352Z,5.40
2022-08-03T08:33:23.270Z,4.00
2022-08-03T08:38:22.568Z,3.00
2022-08-03T08:40:50.945Z,3.00
2022-08-03T08:43:19.244Z,3.50
2022-08-03T08:45:50.717Z,2.80
2022-08-03T08:48:24.874Z,3.70
2022-08-03T08:50:54.573Z,4.90
2022-08-03T08:53:27.634Z,2.90
2022-08-03T08:56:00.952Z,4.60
2022-08-03T08:58:39.367Z,3.00
2022-08-03T09:01:07.870Z,3.30
2022-08-03T09:03:36.921Z,3.70
2022-08-03T09:06:05.062Z,4.70
2022-08-03T09:08:34.994Z,3.40
2022-08-03T09:11:03.042Z,3.00
2022-08-03T09:13:31.339Z,3.20
2022-08-03T09:16:25.684Z,3.30
2022-08-03T09:18:54.411Z,3.80
2022-08-03T09:21:33.209Z,3.70
2022-08-03T09:24:06.254Z,2.70
2022-08-03T09:26:35.852Z,4.10
2022-08-03T09:29:15.355Z,5.80
2022-08-03T09:31:45.997Z,5.00
2022-08-03T09:34:16.417Z,2.80
2022-08-03T09:36:49.124Z,3.70
2022-08-03T09:39:40.748Z,3.80
2022-08-03T09:42:15.765Z,3.00
2022-08-03T09:44:46.169Z,3.20
2022-08-03T09:47:15.986Z,4.10
2022-08-03T09:49:58.259Z,3.00
2022-08-03T09:52:39.091Z,3.00
2022-08-03T09:56:30.720Z,5.60
2022-08-03T09:58:10.756Z,3.10
2022-08-03T10:00:56.932Z,2.90
2022-08-03T10:03:27.340Z,2.60
2022-08-03T10:05:59.524Z,2.50
2022-08-03T10:08:28.019Z,3.60
2022-08-03T10:10:58.530Z,2.70
2022-08-03T10:13:26.888Z,2.70
2022-08-03T10:16:21.601Z,4.70
2022-08-03T10:18:42.735Z,2.70
2022-08-03T10:21:13.066Z,5.00
2022-08-03T10:23:41.674Z,3.40
2022-08-03T10:26:13.317Z,2.40
2022-08-03T10:28:45.849Z,3.20
2022-08-03T10:31:14.482Z,2.50
2022-08-03T10:33:51.061Z,4.60
2022-08-03T10:36:24.111Z,2.40
2022-08-03T10:38:53.675Z,2.10
2022-08-03T10:41:23.914Z,2.40
2022-08-03T10:44:09.831Z,2.70
2022-08-03T10:46:44.817Z,2.00
2022-08-03T10:49:21.454Z,3.50
2022-08-03T10:52:13.793Z,2.10
2022-08-03T10:55:11.219Z,1.70
2022-08-03T10:57:50.803Z,2.10
2022-08-03T11:00:26.339Z,2.50
2022-08-03T11:03:12.586Z,3.30
2022-08-03T11:05:45.762Z,2.80
2022-08-03T11:08:29.872Z,7.70
2022-08-03T11:11:20.493Z,2.00
2022-08-03T11:14:04.657Z,2.00
2022-08-03T11:16:35.636Z,3.70
2022-08-03T11:21:50.934Z,2.20
2022-08-03T11:24:36.934Z,2.40
2022-08-03T11:27:29.945Z,1.90
2022-08-03T11:30:13.859Z,1.90
2022-08-03T11:32:46.693Z,2.10
2022-08-03T11:35:17.586Z,2.00
2022-08-03T11:38:03.324Z,2.20
2022-08-03T11:40:40.398Z,3.20
2022-08-03T11:43:10.158Z,2.10
2022-08-03T11:45:38.446Z,3.00
2022-08-03T11:48:16.923Z,4.20
2022-08-03T11:50:45.549Z,2.00
2022-08-03T11:53:16.638Z,3.90
2022-08-03T11:55:48.992Z,1.70
2022-08-03T11:59:13.119Z,3.50
2022-08-03T12:01:07.746Z,2.20
2022-08-03T12:03:36.485Z,2.10
2022-08-03T12:06:09.384Z,2.80
2022-08-03T12:08:37.600Z,2.00
2022-08-03T12:11:07.299Z,2.20
2022-08-03T12:14:45.690Z,2.40
2022-08-03T12:16:35.117Z,2.00
2022-08-03T12:19:05.219Z,1.90
2022-08-03T12:21:34.004Z,1.80
2022-08-03T12:24:05.910Z,1.80
2022-08-03T12:26:59.362Z,2.40
2022-08-03T12:29:28.419Z,2.10
2022-08-03T12:31:57.230Z,1.70
2022-08-03T12:34:47.204Z,2.20
2022-08-03T12:37:22.758Z,2.30
2022-08-03T12:40:01.684Z,1.70
2022-08-03T12:42:36.587Z,1.70
2022-08-03T12:45:26.332Z,2.30
2022-08-03T12:48:03.639Z,2.00
2022-08-03T12:50:36.010Z,1.60
2022-08-03T12:53:09.124Z,3.00
2022-08-03T12:55:57.163Z,2.20
2022-08-03T12:58:35.452Z,2.40
2022-08-03T13:01:09.633Z,2.20
2022-08-03T13:03:49.797Z,2.10
2022-08-03T13:06:22.994Z,1.70
2022-08-03T13:09:05.498Z,2.10
2022-08-03T13:12:01.729Z,2.20
2022-08-03T13:14:23.664Z,2.30
2022-08-03T13:16:51.990Z,6.70
2022-08-03T13:19:20.111Z,2.00
2022-08-03T13:21:53.495Z,3.40
2022-08-03T13:24:32.991Z,1.40
2022-08-03T13:28:02.471Z,2.60
2022-08-03T13:29:53.638Z,2.90
2022-08-03T13:32:22.532Z,2.10
2022-08-03T13:34:50.545Z,2.70
2022-08-03T13:37:18.510Z,2.20
2022-08-03T13:39:57.794Z,1.70
2022-08-03T13:42:30.440Z,2.50
2022-08-03T13:44:59.313Z,2.60
2022-08-03T13:47:28.029Z,1.90
2022-08-03T13:49:59.848Z,1.60
2022-08-03T13:52:32.475Z,2.60
2022-08-03T13:55:01.533Z,1.70
2022-08-03T13:58:11.744Z,2.00
2022-08-03T14:00:27.704Z,1.80
2022-08-03T14:03:14.703Z,2.10
2022-08-03T14:05:44.215Z,5.50
2022-08-03T14:08:12.448Z,1.70
2022-08-03T14:10:45.133Z,3.70
2022-08-03T14:13:17.536Z,1.90
2022-08-03T14:15:49.814Z,1.70
2022-08-03T14:18:28.384Z,2.90
2022-08-03T14:21:06.687Z,3.20
2022-08-03T14:23:37.471Z,2.10
2022-08-03T14:26:06.855Z,2.60
2022-08-03T14:28:35.230Z,2.40
2022-08-03T14:31:04.262Z,2.90
2022-08-03T14:33:36.342Z,3.20
2022-08-03T14:36:05.069Z,1.60
2022-08-03T14:38:33.242Z,1.70
2022-08-03T14:41:01.355Z,1.50
2022-08-03T14:43:34.122Z,2.60
2022-08-03T14:46:02.482Z,3.30
2022-08-03T14:50:29.464Z,2.40
2022-08-03T14:51:19.163Z,2.00
2022-08-03T14:53:47.295Z,1.60
2022-08-03T14:56:15.263Z,1.70
2022-08-03T14:58:44.018Z,2.00
2022-08-03T15:02:05.154Z,1.30
2022-08-03T15:04:00.020Z,2.00
2022-08-03T15:06:28.089Z,4.20
2022-08-03T15:09:22.644Z,2.70
2022-08-03T15:11:44.215Z,1.70
2022-08-03T15:14:13.499Z,2.00
2022-08-03T15:16:43.032Z,1.30
2022-08-03T15:20:00.510Z,2.20
2022-08-03T15:21:58.899Z,1.40
2022-08-03T15:24:29.484Z,2.30
2022-08-03T15:26:57.623Z,2.10
2022-08-03T15:30:05.757Z,2.30
2022-08-03T15:32:14.572Z,3.70
2022-08-03T15:34:50.759Z,16.50
2022-08-03T15:37:20.762Z,31.60
2022-08-03T15:39:59.519Z,30.70
2022-08-03T15:42:29.931Z,2.50
2022-08-03T15:44:58.146Z,6.20
2022-08-03T15:47:26.541Z,18.00
2022-08-03T15:49:54.607Z,8.70
2022-08-03T15:52:22.641Z,7.00
2022-08-03T15:54:50.740Z,4.80
2022-08-03T15:57:19.127Z,1.70
2022-08-03T15:59:47.666Z,3.40
2022-08-03T16:02:16.170Z,2.70
2022-08-03T16:04:44.168Z,2.80
2022-08-03T16:07:12.849Z,5.20
2022-08-03T16:09:42.098Z,6.20
2022-08-03T16:12:16.046Z,4.00
2022-08-03T16:14:52.801Z,4.70
2022-08-03T16:17:22.626Z,1.70
2022-08-03T16:19:54.959Z,4.50
2022-08-03T16:22:24.823Z,2.30
2022-08-03T16:24:54.309Z,2.30
2022-08-03T16:27:37.389Z,2.50
2022-08-03T16:30:12.982Z,4.40
2022-08-03T16:32:41.038Z,2.10
2022-08-03T16:35:09.793Z,3.60
2022-08-03T16:37:56.021Z,2.20
2022-08-03T16:40:25.817Z,3.90
2022-08-03T16:42:54.445Z,3.30
2022-08-03T16:45:22.494Z,3.80
2022-08-03T16:48:01.670Z,7.20
2022-08-03T16:50:35.070Z,1.90
2022-08-03T16:53:09.285Z,2.30
2022-08-03T16:55:49.172Z,3.40
2022-08-03T16:58:41.749Z,3.60
2022-08-03T17:01:21.719Z,3.00
2022-08-03T17:04:03.319Z,2.50
2022-08-03T17:06:38.046Z,2.20
2022-08-03T17:09:15.517Z,3.30
2022-08-03T17:11:48.628Z,2.70
2022-08-03T17:14:22.038Z,1.70
2022-08-03T17:16:54.076Z,2.30
2022-08-03T17:19:24.186Z,2.50
2022-08-03T17:22:02.123Z,2.20
2022-08-03T17:28:42.128Z,3.50
2022-08-03T17:30:01.011Z,2.30
2022-08-03T17:32:33.296Z,2.10
2022-08-03T17:35:05.329Z,2.70
2022-08-03T17:37:58.717Z,2.60
2022-08-03T17:40:26.582Z,2.70
2022-08-03T17:42:57.076Z,3.60
2022-08-03T17:45:51.947Z,2.30
2022-08-03T17:48:24.927Z,3.20
2022-08-03T17:51:00.155Z,2.40
2022-08-03T17:53:31.908Z,2.50
2022-08-03T17:56:40.791Z,3.50
2022-08-03T17:59:52.479Z,5.50
2022-08-03T18:02:49.287Z,3.10
2022-08-03T18:05:21.929Z,4.90
2022-08-03T18:07:59.459Z,2.80
2022-08-03T18:10:36.586Z,2.90
2022-08-03T18:13:24.624Z,3.00
2022-08-03T18:15:56.237Z,3.10
2022-08-03T18:18:32.250Z,4.80
2022-08-03T18:21:04.586Z,3.00
2022-08-03T18:23:37.210Z,4.90
2022-08-03T18:26:10.709Z,4.00
2022-08-03T18:28:41.059Z,8.70
2022-08-03T18:31:59.921Z,6.00
2022-08-03T18:34:18.420Z,5.70
2022-08-03T18:36:52.429Z,4.30
2022-08-03T18:39:24.199Z,6.80
2022-08-03T18:41:52.743Z,4.40
2022-08-03T18:47:19.350Z,4.00
2022-08-03T18:50:00.177Z,5.60
2022-08-03T18:52:31.907Z,5.90
2022-08-03T18:55:19.763Z,3.90
2022-08-03T18:58:15.873Z,4.00
2022-08-03T19:01:04.973Z,4.30
2022-08-03T19:03:48.520Z,4.60
2022-08-03T19:06:23.644Z,5.10
2022-08-03T19:08:56.146Z,6.00
2022-08-03T19:12:11.051Z,3.90
2022-08-03T19:14:30.342Z,8.40
2022-08-03T19:17:08.593Z,4.20
2022-08-03T19:19:44.029Z,5.80
2022-08-03T19:22:16.341Z,5.00
2022-08-03T19:24:46.187Z,4.90
2022-08-03T19:27:16.137Z,8.70
2022-08-03T19:29:58.477Z,4.00
2022-08-03T19:32:32.299Z,5.80
2022-08-03T19:35:02.574Z,5.70
2022-08-03T19:37:33.261Z,3.70
2022-08-03T19:40:10.419Z,5.80
2022-08-03T19:42:46.572Z,5.40
2022-08-03T19:45:17.631Z,4.40
2022-08-03T19:47:48.663Z,5.10
2022-08-03T19:50:19.496Z,4.10
2022-08-03T19:52:49.771Z,4.50
2022-08-03T19:55:18.344Z,4.20
2022-08-03T19:57:49.274Z,4.60
2022-08-03T20:00:38.974Z,4.00
2022-08-03T20:03:19.665Z,4.50
2022-08-03T20:05:54.282Z,4.20
2022-08-03T20:08:23.403Z,5.40
2022-08-03T20:10:52.166Z,6.20
2022-08-03T20:13:20.730Z,3.50
2022-08-03T20:15:49.152Z,5.60
2022-08-03T20:18:21.729Z,4.80
2022-08-03T20:20:51.428Z,4.50
2022-08-03T20:23:21.156Z,5.20
2022-08-03T20:25:57.173Z,5.10
2022-08-03T20:31:32.578Z,6.10
2022-08-03T20:34:05.975Z,5.90
2022-08-03T20:36:34.291Z,5.50
2022-08-03T20:39:07.639Z,4.90
2022-08-03T20:41:37.285Z,7.30
2022-08-03T20:44:06.496Z,4.90
2022-08-03T20:46:51.689Z,4.70
2022-08-03T20:49:23.478Z,5.50
2022-08-03T20:51:53.134Z,6.00
2022-08-03T20:54:29.586Z,6.60
2022-08-03T20:57:03.627Z,7.10
2022-08-03T20:59:46.723Z,5.50
2022-08-03T21:02:19.547Z,5.30
2022-08-03T21:08:04.112Z,5.60
2022-08-03T21:10:16.597Z,5.70
2022-08-03T21:12:59.142Z,5.60
2022-08-03T21:13:06.983Z,5.60
2022-08-03T21:13:12.319Z,5.30
2022-08-03T21:16:06.774Z,5.40
2022-08-03T21:21:11.384Z,5.50
2022-08-03T21:23:48.909Z,8.00
2022-08-03T21:26:19.561Z,5.80
2022-08-03T21:28:51.777Z,5.80
2022-08-03T21:31:25.655Z,5.60
2022-08-03T21:34:00.530Z,5.60
2022-08-03T21:36:30.857Z,7.80
2022-08-03T21:38:59.204Z,6.60
2022-08-03T21:41:29.920Z,5.70
2022-08-03T21:44:02.365Z,5.60
2022-08-03T21:46:35.104Z,5.50
2022-08-03T21:50:05.504Z,6.00
2022-08-03T21:51:54.488Z,5.90
2022-08-03T21:54:24.242Z,5.70
2022-08-03T21:56:55.065Z,7.00
2022-08-03T21:59:23.482Z,5.40
2022-08-03T22:01:55.346Z,6.10
2022-08-03T22:04:50.706Z,6.10
2022-08-03T22:07:15.122Z,5.60
2022-08-03T22:09:51.331Z,5.90
2022-08-03T22:12:24.420Z,5.40
2022-08-03T22:15:00.182Z,7.00
2022-08-03T22:17:55.838Z,6.20
2022-08-03T22:20:22.794Z,6.60
2022-08-03T22:22:56.284Z,7.30
2022-08-03T22:25:34.501Z,6.00
2022-08-03T22:28:07.607Z,6.40
2022-08-03T22:30:36.367Z,5.90
2022-08-03T22:33:11.637Z,6.50
2022-08-03T22:35:47.173Z,6.30
2022-08-03T22:38:17.867Z,8.50
2022-08-03T22:40:48.978Z,8.30
2022-08-03T22:43:16.927Z,6.40
2022-08-03T22:46:10.447Z,6.70
2022-08-03T22:48:35.571Z,7.10
2022-08-03T22:51:09.192Z,6.80
2022-08-03T22:53:38.763Z,6.90
2022-08-03T22:56:07.000Z,8.00
2022-08-03T22:58:34.939Z,7.50
2022-08-03T23:01:13.450Z,12.00
2022-08-03T23:03:59.922Z,7.20
2022-08-03T23:06:37.086Z,6.70
2022-08-03T23:09:12.994Z,9.50
2022-08-03T23:11:46.130Z,7.60
2022-08-03T23:14:15.950Z,6.50
2022-08-03T23:16:45.530Z,6.40
2022-08-03T23:19:17.149Z,7.30
2022-08-03T23:22:02.795Z,10.30
2022-08-03T23:24:36.181Z,9.30
2022-08-03T23:27:06.086Z,7.20
2022-08-03T23:29:36.367Z,7.00
2022-08-03T23:32:05.818Z,7.20
2022-08-03T23:34:52.695Z,6.80
2022-08-03T23:37:21.047Z,6.10
2022-08-03T23:39:49.298Z,7.70
2022-08-03T23:42:18.877Z,8.60
2022-08-03T23:44:47.238Z,6.80
2022-08-03T23:47:15.361Z,6.10
2022-08-03T23:49:43.808Z,6.20
2022-08-03T23:52:26.501Z,7.20
2022-08-03T23:55:04.373Z,8.60
2022-08-03T23:57:37.706Z,6.60
